Time;durP1;ratioP1;P1;durP2;ratioP2;P2;SDS_P1;SDS_P2;PMS_P1;PMS_P2;Temp;Humidity;BMP_temperature;BMP_pressure;BME280_temperature;BME280_humidity;BME280_pressure;Samples;Min_cycle;Max_cycle;Signal;HPM_P1;HPM_P2
2021/11/17 02:26:33;;;;;;;;;;;;;;;12.99;100.00;101789.19;5085848;28;19917;-51
2021/11/17 02:29:24;;;;;;;;;;;;;;;12.85;100.00;101788.19;5053381;28;19920;-54
2021/11/17 02:32:09;;;;;;;;;;;;;;;12.91;100.00;101785.59;5053505;28;19924;-55
2021/11/17 02:34:34;;;;;;;;;;;;;;;13.06;100.00;101784.72;5053792;28;19917;-55
2021/11/17 02:37:06;;;;;;;;;;;;;;;12.37;100.00;101788.59;5053206;28;19917;-52
2021/11/17 02:39:44;;;;;;;;;;;;;;;12.48;100.00;101791.66;5052963;28;20006;-50
2021/11/17 02:42:31;;;;;;;;;;;;;;;12.04;100.00;101795.91;5053833;28;19971;-52
2021/11/17 02:44:56;;;;;;;;;;;;;;;12.38;100.00;101803.66;5051435;28;19924;-53
2021/11/17 02:47:28;;;;;;;;;;;;;;;12.65;100.00;101799.47;5052930;28;19920;-51
2021/11/17 02:50:13;;;;;;;;;;;;;;;12.10;100.00;101799.72;5059507;28;19921;-52
2021/11/17 02:52:44;;;;;;;;;;;;;;;12.18;100.00;101799.63;5059810;28;19923;-51
2021/11/17 02:55:22;;;;;;;;;;;;;;;12.26;100.00;101795.22;5091977;28;19916;-51
2021/11/17 02:57:48;;;;;;;;;;;;;;;12.50;100.00;101804.03;5059529;28;20010;-50
2021/11/17 03:00:16;;;;;;;;;;;;;;;12.75;100.00;101802.72;5091925;28;19967;-51
2021/11/17 03:02:46;;;;;;;;;;;;;;;12.61;100.00;101812.47;5059640;28;19920;-57
2021/11/17 03:05:14;;;;;;;;;;;;;;;12.48;100.00;101805.06;5059290;28;20004;-54
2021/11/17 03:07:58;;;;;;;;;;;;;;;12.81;100.00;101800.31;5060669;28;19935;-53
2021/11/17 03:10:42;;;;;;;;;;;;;;;12.27;100.00;101799.56;5059662;28;19917;-53
2021/11/17 03:13:19;;;;;;;;;;;;;;;12.04;100.00;101797.78;5059798;28;20029;-52
2021/11/17 03:15:45;;;;;;;;;;;;;;;12.35;100.00;101796.81;5059675;28;19955;-49
2021/11/17 03:18:16;;;;;;;;;;;;;;;12.41;100.00;101804.09;5059496;28;20288;-54
2021/11/17 03:20:42;;;;;;;;;;;;;;;12.48;100.00;101797.00;5059244;28;19920;-52
2021/11/17 03:23:10;;;;;;;;;;;;;;;12.36;100.00;101787.75;5059140;28;19913;-49
2021/11/17 03:25:36;;;;;;;;;;;;;;;12.13;100.00;101777.91;5059327;28;19921;-54
2021/11/17 03:28:01;;;;;;;;;;;;;;;12.12;100.00;101778.94;5059272;28;19921;-55
2021/11/17 03:30:29;;;;;;;;;;;;;;;12.27;100.00;101776.25;5092110;28;19999;-51
2021/11/17 03:33:01;;;;;;;;;;;;;;;12.41;100.00;101776.47;5091320;28;19974;-50
2021/11/17 03:35:46;;;;;;;;;;;;;;;12.31;100.00;101779.41;5058851;28;20003;-51
2021/11/17 03:38:12;;;;;;;;;;;;;;;11.91;100.00;101772.38;5055774;28;19990;-54
2021/11/17 03:41:04;;;;;;;;;;;;;;;12.21;100.00;101779.69;5091483;28;20337;-53
2021/11/17 03:43:48;;;;;;;;;;;;;;;13.03;100.00;101782.41;5058691;28;19916;-52
2021/11/17 03:46:13;;;;;;;;;;;;;;;12.61;100.00;101796.34;5059082;28;19920;-54
2021/11/17 03:48:51;;;;;;;;;;;;;;;13.12;100.00;101801.94;5091492;28;19923;-51
2021/11/17 03:51:36;;;;;;;;;;;;;;;12.91;100.00;101795.47;5075397;28;19917;-50
2021/11/17 03:54:14;;;;;;;;;;;;;;;12.90;100.00;101796.50;5060169;28;19959;-52
2021/11/17 03:56:45;;;;;;;;;;;;;;;12.92;100.00;101786.44;5059168;28;20284;-58
2021/11/17 03:59:11;;;;;;;;;;;;;;;12.87;100.00;101789.66;5092909;28;20003;-55
2021/11/17 04:01:42;;;;;;;;;;;;;;;13.21;100.00;101792.75;5056363;28;19963;-52
2021/11/17 04:04:20;;;;;;;;;;;;;;;13.08;100.00;101797.97;5057504;28;19923;-51
2021/11/17 04:06:51;;;;;;;;;;;;;;;12.96;100.00;101798.47;5055614;28;20015;-49
2021/11/17 04:09:29;;;;;;;;;;;;;;;12.85;100.00;101796.22;5088897;28;19923;-53
2021/11/17 04:12:04;;;;;;;;;;;;;;;12.54;100.00;101794.59;5055943;28;19956;-50
2021/11/17 04:14:42;;;;;;;;;;;;;;;12.76;100.00;101796.34;5089253;28;19916;-50
2021/11/17 04:17:14;;;;;;;;;;;;;;;12.79;100.00;101794.31;5090113;28;19917;-51
2021/11/17 04:19:42;;;;;;;;;;;;;;;12.74;100.00;101790.34;5057102;28;20364;-50
2021/11/17 04:22:26;;;;;;;;;;;;;;;12.42;100.00;101784.31;5089677;28;19912;-49
2021/11/17 04:25:00;;;;;;;;;;;;;;;12.52;100.00;101785.91;5057052;28;19923;-51
2021/11/17 04:27:26;;;;;;;;;;;;;;;12.65;100.00;101787.94;5055916;28;20270;-48
2021/11/17 04:30:17;;;;;;;;;;;;;;;12.74;100.00;101781.44;5055744;28;19927;-49
2021/11/17 04:33:01;;;;;;;;;;;;;;;12.82;100.00;101789.41;5046938;28;19939;-49
2021/11/17 04:35:30;;;;;;;;;;;;;;;12.71;100.00;101779.97;5055594;28;19920;-48
2021/11/17 04:38:02;;;;;;;;;;;;;;;12.79;100.00;101765.59;5088277;28;19917;-49
2021/11/17 04:40:50;;;;;;;;;;;;;;;12.51;100.00;101762.78;5087580;28;20379;-50
2021/11/17 04:43:19;;;;;;;;;;;;;;;13.19;100.00;101765.25;5044807;28;19917;-50
2021/11/17 04:45:47;;;;;;;;;;;;;;;13.03;100.00;101761.75;5087272;28;19982;-50
2021/11/17 04:48:13;;;;;;;;;;;;;;;13.02;100.00;101764.63;5055216;28;19916;-50
2021/11/17 04:50:47;;;;;;;;;;;;;;;12.96;100.00;101757.34;5087164;28;19916;-49
2021/11/17 04:53:22;;;;;;;;;;;;;;;12.29;100.00;101758.13;5054737;28;19916;-50
2021/11/17 04:55:59;;;;;;;;;;;;;;;12.58;100.00;101758.31;5054986;28;19979;-50
2021/11/17 04:58:37;;;;;;;;;;;;;;;12.36;100.00;101744.81;5087672;28;19939;-49
2021/11/17 05:01:10;;;;;;;;;;;;;;;12.79;100.00;101759.41;5055549;28;19979;-50
2021/11/17 05:03:38;;;;;;;;;;;;;;;12.29;100.00;101743.91;5054677;28;19916;-54
2021/11/17 05:06:06;;;;;;;;;;;;;;;12.23;100.00;101750.84;5055167;28;19913;-53
2021/11/17 05:08:31;;;;;;;;;;;;;;;12.67;100.00;101738.41;5055653;28;19929;-51
2021/11/17 05:11:12;;;;;;;;;;;;;;;12.38;100.00;101740.09;5054496;28;20285;-52
2021/11/17 05:13:50;;;;;;;;;;;;;;;12.74;100.00;101733.13;5087499;28;19916;-50
2021/11/17 05:16:31;;;;;;;;;;;;;;;12.35;100.00;101737.78;5054773;28;19939;-49
2021/11/17 05:19:15;;;;;;;;;;;;;;;12.50;100.00;101731.59;5087373;28;19925;-50
2021/11/17 05:21:53;;;;;;;;;;;;;;;12.54;100.00;101731.03;5086936;28;19916;-50
2021/11/17 05:24:21;;;;;;;;;;;;;;;12.32;100.00;101738.16;5053847;28;19967;-50
2021/11/17 05:26:47;;;;;;;;;;;;;;;12.46;100.00;101742.72;5054607;28;20007;-51
2021/11/17 05:29:22;;;;;;;;;;;;;;;12.60;100.00;101741.03;5087265;28;19963;-49
2021/11/17 05:31:47;;;;;;;;;;;;;;;12.54;100.00;101735.56;5054787;28;19916;-48
2021/11/17 05:34:18;;;;;;;;;;;;;;;12.83;100.00;101737.38;5054886;28;19916;-50
2021/11/17 05:37:02;;;;;;;;;;;;;;;13.00;100.00;101742.50;5055756;28;19978;-50
2021/11/17 05:39:31;;;;;;;;;;;;;;;12.99;100.00;101743.53;5087618;28;19978;-51
2021/11/17 05:41:56;;;;;;;;;;;;;;;12.90;100.00;101746.34;5054747;28;19916;-50
2021/11/17 05:44:28;;;;;;;;;;;;;;;12.91;100.00;101745.31;5055259;28;20375;-50
2021/11/17 05:47:07;;;;;;;;;;;;;;;13.04;100.00;101746.50;5087132;28;19917;-50
2021/11/17 05:49:54;;;;;;;;;;;;;;;12.84;100.00;101741.72;5055229;28;19920;-52
2021/11/17 05:52:26;;;;;;;;;;;;;;;13.16;100.00;101754.91;5054463;28;19936;-53
2021/11/17 05:54:59;;;;;;;;;;;;;;;13.28;100.00;101752.53;5054161;28;20019;-52
2021/11/17 05:57:27;;;;;;;;;;;;;;;12.72;100.00;101752.13;5069579;28;20360;-53
2021/11/17 06:00:04;;;;;;;;;;;;;;;13.26;100.00;101751.88;5086733;28;19925;-51
2021/11/17 06:02:48;;;;;;;;;;;;;;;13.39;100.00;101754.69;5053857;28;19967;-50
2021/11/17 06:05:14;;;;;;;;;;;;;;;13.30;100.00;101751.31;5086233;28;19939;-52
2021/11/17 06:07:39;;;;;;;;;;;;;;;13.02;100.00;101752.03;5053952;28;20310;-52
2021/11/17 06:10:09;;;;;;;;;;;;;;;13.27;100.00;101753.56;5054139;28;19916;-55
2021/11/17 06:12:34;;;;;;;;;;;;;;;13.05;100.00;101750.84;5085980;28;19916;-50
2021/11/17 06:15:00;;;;;;;;;;;;;;;12.98;100.00;101758.81;5053394;28;19959;-52
2021/11/17 06:17:27;;;;;;;;;;;;;;;13.49;100.00;101762.47;5053339;28;19967;-50
2021/11/17 06:19:53;;;;;;;;;;;;;;;13.36;100.00;101762.31;5053452;28;20007;-54
2021/11/17 06:22:21;;;;;;;;;;;;;;;13.50;100.00;101763.31;5053816;28;19939;-53
2021/11/17 06:24:48;;;;;;;;;;;;;;;13.07;100.00;101761.38;5052036;28;19916;-51
2021/11/17 06:27:18;;;;;;;;;;;;;;;12.87;100.00;101757.47;5054038;28;19954;-51
2021/11/17 06:29:48;;;;;;;;;;;;;;;13.28;100.00;101769.47;5053985;28;19924;-50
2021/11/17 06:32:14;;;;;;;;;;;;;;;12.96;100.00;101766.25;5053258;28;19916;-53
2021/11/17 06:34:44;;;;;;;;;;;;;;;13.02;100.00;101765.47;5052756;28;19935;-54
2021/11/17 06:37:12;;;;;;;;;;;;;;;13.57;100.00;101773.09;5085728;28;19966;-51
2021/11/17 06:39:38;;;;;;;;;;;;;;;13.36;100.00;101783.78;5053381;28;19916;-54
2021/11/17 06:42:05;;;;;;;;;;;;;;;13.11;100.00;101776.94;5052154;28;19948;-54
2021/11/17 06:44:31;;;;;;;;;;;;;;;13.23;100.00;101776.44;5053088;28;19917;-51
2021/11/17 06:46:56;;;;;;;;;;;;;;;13.58;100.00;101774.75;5085658;28;20398;-53
2021/11/17 06:49:22;;;;;;;;;;;;;;;13.48;100.00;101785.00;5053012;28;20006;-52
2021/11/17 06:51:48;;;;;;;;;;;;;;;13.37;100.00;101793.50;5053023;28;19924;-50
2021/11/17 06:54:13;;;;;;;;;;;;;;;13.18;100.00;101798.50;5052924;28;19917;-53
2021/11/17 06:56:39;;;;;;;;;;;;;;;13.28;100.00;101790.97;5085299;28;20131;-54
2021/11/17 06:59:04;;;;;;;;;;;;;;;13.56;100.00;101787.53;5052744;28;19917;-54
2021/11/17 07:01:30;;;;;;;;;;;;;;;13.88;100.00;101789.91;5053050;28;19928;-50
2021/11/17 07:03:55;;;;;;;;;;;;;;;13.33;100.00;101795.78;5068399;28;20246;-51
2021/11/17 07:06:21;;;;;;;;;;;;;;;13.86;100.00;101795.50;5052777;28;19927;-52
2021/11/17 07:08:46;;;;;;;;;;;;;;;13.53;100.00;101809.44;5052191;28;20033;-51
2021/11/17 07:11:11;;;;;;;;;;;;;;;13.32;100.00;101792.25;5052067;28;19982;-50
2021/11/17 07:13:37;;;;;;;;;;;;;;;13.57;100.00;101791.91;5053485;28;20015;-50
2021/11/17 07:16:03;;;;;;;;;;;;;;;13.64;100.00;101800.03;5052457;28;19917;-49
2021/11/17 07:18:29;;;;;;;;;;;;;;;13.30;100.00;101804.22;5053572;28;19924;-49
2021/11/17 07:20:54;;;;;;;;;;;;;;;13.43;100.00;101808.94;5052502;28;19990;-50
2021/11/17 07:23:19;;;;;;;;;;;;;;;13.05;100.00;101793.81;5084818;28;20350;-50
2021/11/17 07:25:45;;;;;;;;;;;;;;;13.06;100.00;101792.78;5053045;28;20024;-54
2021/11/17 07:28:11;;;;;;;;;;;;;;;13.35;100.00;101801.78;5053488;28;19924;-57
2021/11/17 07:30:38;;;;;;;;;;;;;;;13.21;100.00;101798.13;5052300;28;19982;-54
2021/11/17 07:33:04;;;;;;;;;;;;;;;13.74;100.00;101800.56;5053251;28;19924;-55
2021/11/17 07:35:31;;;;;;;;;;;;;;;13.58;100.00;101798.94;5054062;28;19920;-53
2021/11/17 07:38:03;;;;;;;;;;;;;;;13.76;100.00;101806.56;5056914;28;19920;-53
2021/11/17 07:40:32;;;;;;;;;;;;;;;14.01;100.00;101808.00;5056776;28;19916;-53
2021/11/17 07:42:58;;;;;;;;;;;;;;;13.72;100.00;101812.50;5055743;28;20272;-53
2021/11/17 07:45:24;;;;;;;;;;;;;;;13.87;100.00;101812.44;5055075;28;19923;-51
2021/11/17 07:47:50;;;;;;;;;;;;;;;14.17;100.00;101820.31;5055355;28;19920;-51
2021/11/17 07:50:15;;;;;;;;;;;;;;;13.78;100.00;101814.41;5056111;28;19956;-52
2021/11/17 07:52:41;;;;;;;;;;;;;;;13.20;100.00;101816.06;5056231;28;20373;-54
2021/11/17 07:55:08;;;;;;;;;;;;;;;13.51;100.00;101827.59;5056343;28;19921;-54
2021/11/17 07:57:33;;;;;;;;;;;;;;;13.79;100.00;101826.84;5056198;28;19920;-52
2021/11/17 07:59:59;;;;;;;;;;;;;;;13.57;100.00;101829.53;5055557;28;19997;-50
2021/11/17 08:02:25;;;;;;;;;;;;;;;13.81;100.00;101827.47;5088258;28;19921;-54
2021/11/17 08:04:51;;;;;;;;;;;;;;;13.50;100.00;101825.94;5055982;28;19923;-53
2021/11/17 08:07:19;;;;;;;;;;;;;;;13.44;100.00;101830.22;5071204;28;19921;-53
2021/11/17 08:09:46;;;;;;;;;;;;;;;13.38;100.00;101828.25;5070756;28;19916;-53
2021/11/17 08:12:12;;;;;;;;;;;;;;;13.43;100.00;101828.56;5056318;28;19960;-53
2021/11/17 08:14:37;;;;;;;;;;;;;;;13.80;100.00;101822.31;5055682;28;20345;-54
2021/11/17 08:17:04;;;;;;;;;;;;;;;13.82;100.00;101834.50;5088147;28;19920;-52
2021/11/17 08:19:29;;;;;;;;;;;;;;;13.36;100.00;101830.31;5038409;28;19925;-53
2021/11/17 08:21:55;;;;;;;;;;;;;;;13.55;100.00;101834.25;5088063;28;19921;-48
2021/11/17 08:24:21;;;;;;;;;;;;;;;13.30;100.00;101837.25;5087622;28;20395;-49
2021/11/17 08:26:46;;;;;;;;;;;;;;;13.66;100.00;101824.03;5054641;28;19921;-51
2021/11/17 08:29:13;;;;;;;;;;;;;;;13.67;100.00;101825.69;5055267;28;19920;-51
2021/11/17 08:31:38;;;;;;;;;;;;;;;13.19;100.00;101841.28;5070998;28;19974;-53
2021/11/17 08:34:04;;;;;;;;;;;;;;;13.86;100.00;101841.19;5088129;28;19920;-51
2021/11/17 08:36:29;;;;;;;;;;;;;;;13.76;100.00;101838.81;5070670;28;19962;-53
2021/11/17 08:38:55;;;;;;;;;;;;;;;13.60;100.00;101839.88;5054420;28;19917;-52
2021/11/17 08:41:23;;;;;;;;;;;;;;;14.22;100.00;101835.88;5055157;28;19942;-51
2021/11/17 08:43:50;;;;;;;;;;;;;;;14.29;100.00;101855.59;5053866;28;19920;-54
2021/11/17 08:46:15;;;;;;;;;;;;;;;13.96;100.00;101840.03;5054588;28;19916;-54
2021/11/17 08:48:41;;;;;;;;;;;;;;;14.08;100.00;101838.50;5087459;28;19921;-54
2021/11/17 08:51:08;;;;;;;;;;;;;;;13.78;100.00;101838.63;5087806;28;19947;-52
2021/11/17 08:53:34;;;;;;;;;;;;;;;14.04;100.00;101839.88;5055344;28;19983;-51
2021/11/17 08:56:01;;;;;;;;;;;;;;;14.05;100.00;101844.22;5087109;28;19917;-54
2021/11/17 08:58:27;;;;;;;;;;;;;;;13.77;100.00;101853.09;5054786;28;19920;-53
2021/11/17 09:00:53;;;;;;;;;;;;;;;13.80;100.00;101852.69;5054733;28;19985;-53
2021/11/17 09:03:18;;;;;;;;;;;;;;;14.15;100.00;101855.50;5054753;28;19917;-50
2021/11/17 09:05:49;;;;;;;;;;;;;;;13.85;100.00;101855.66;5054686;28;19917;-52
2021/11/17 09:08:15;;;;;;;;;;;;;;;13.92;100.00;101866.47;5054983;28;19950;-51
2021/11/17 09:10:44;;;;;;;;;;;;;;;14.11;100.00;101859.63;5054562;28;20391;-55
2021/11/17 09:13:09;;;;;;;;;;;;;;;14.01;100.00;101857.25;5054502;28;19931;-49
2021/11/17 09:15:37;;;;;;;;;;;;;;;13.81;100.00;101865.13;5054735;28;19920;-52
2021/11/17 09:18:03;;;;;;;;;;;;;;;14.30;100.00;101862.63;5054428;28;19970;-55
2021/11/17 09:20:29;;;;;;;;;;;;;;;13.96;100.00;101857.00;5053191;28;19916;-53
2021/11/17 09:22:54;;;;;;;;;;;;;;;14.06;100.00;101870.09;5053263;28;20016;-52
2021/11/17 09:25:20;;;;;;;;;;;;;;;14.48;100.00;101862.97;5054657;28;20276;-54
2021/11/17 09:27:46;;;;;;;;;;;;;;;13.93;100.00;101880.75;5054609;28;20264;-54
2021/11/17 09:30:13;;;;;;;;;;;;;;;14.20;100.00;101885.34;5054188;28;20040;-50
2021/11/17 09:32:39;;;;;;;;;;;;;;;14.38;100.00;101883.19;5054359;28;19917;-52
2021/11/17 09:35:07;;;;;;;;;;;;;;;14.63;100.00;101875.50;5054093;28;19932;-55
2021/11/17 09:37:33;;;;;;;;;;;;;;;14.94;100.00;101881.53;5054010;28;19921;-53
2021/11/17 09:39:58;;;;;;;;;;;;;;;15.30;100.00;101883.13;5052927;28;19924;-51
2021/11/17 09:42:24;;;;;;;;;;;;;;;15.33;100.00;101880.03;5053945;28;19916;-54
2021/11/17 09:44:50;;;;;;;;;;;;;;;15.44;100.00;101887.53;5069894;28;19944;-50
2021/11/17 09:47:18;;;;;;;;;;;;;;;14.90;100.00;101887.31;5054040;28;19927;-50
2021/11/17 09:49:50;;;;;;;;;;;;;;;15.18;100.00;101882.88;5053909;28;20419;-55
2021/11/17 09:52:18;;;;;;;;;;;;;;;15.38;100.00;101884.81;5054182;28;19923;-53
2021/11/17 09:54:50;;;;;;;;;;;;;;;14.86;100.00;101885.22;5053902;28;19924;-50
2021/11/17 09:57:17;;;;;;;;;;;;;;;15.01;100.00;101890.47;5052005;28;19970;-52
2021/11/17 09:59:48;;;;;;;;;;;;;;;15.70;100.00;101899.44;5053764;28;19919;-54
2021/11/17 10:02:20;;;;;;;;;;;;;;;15.70;100.00;101895.91;5053406;28;19916;-54
2021/11/17 10:04:56;;;;;;;;;;;;;;;15.24;100.00;101905.50;5053945;28;19916;-54
2021/11/17 10:07:55;;;;;;;;;;;;;;;15.55;100.00;101902.31;5052829;28;19921;-51
2021/11/17 10:12:57;;;;;;;;;;;;;;;15.52;100.00;101910.78;5053666;28;19967;-54
2021/11/17 10:15:25;;;;;;;;;;;;;;;15.71;100.00;101913.75;5053606;28;20011;-53
2021/11/17 10:17:53;;;;;;;;;;;;;;;15.82;100.00;101910.44;5053945;28;19912;-54
2021/11/17 10:20:19;;;;;;;;;;;;;;;15.57;100.00;101910.16;5052190;28;19916;-55
2021/11/17 10:22:47;;;;;;;;;;;;;;;16.02;100.00;101907.81;5085492;28;19923;-50
2021/11/17 10:25:15;;;;;;;;;;;;;;;15.93;100.00;101911.75;5052086;28;19920;-55
2021/11/17 10:27:49;;;;;;;;;;;;;;;16.03;100.00;101914.06;5053710;28;19917;-55
2021/11/17 10:30:21;;;;;;;;;;;;;;;15.94;100.00;101916.09;5053585;28;19916;-53
2021/11/17 10:32:57;;;;;;;;;;;;;;;15.53;100.00;101911.59;5052049;28;19966;-54
2021/11/17 10:35:25;;;;;;;;;;;;;;;16.43;100.00;101905.97;5052094;28;19920;-48
2021/11/17 10:38:10;;;;;;;;;;;;;;;16.00;100.00;101900.97;5053178;28;19917;-53
2021/11/17 10:40:50;;;;;;;;;;;;;;;16.26;100.00;101915.53;5052860;28;19921;-50
2021/11/17 10:43:18;;;;;;;;;;;;;;;16.79;100.00;101920.06;5052909;28;19993;-52
2021/11/17 10:45:46;;;;;;;;;;;;;;;16.65;100.00;101921.94;5052721;28;20306;-52
2021/11/17 10:48:20;;;;;;;;;;;;;;;16.70;100.00;101932.94;5052699;28;19920;-52
2021/11/17 10:50:45;;;;;;;;;;;;;;;16.98;100.00;101931.88;5053880;28;19960;-55
2021/11/17 10:53:24;;;;;;;;;;;;;;;16.40;100.00;101928.00;5052966;28;19967;-49
2021/11/17 10:55:51;;;;;;;;;;;;;;;16.29;100.00;101917.78;5051383;28;19917;-49
2021/11/17 10:58:25;;;;;;;;;;;;;;;17.17;100.00;101918.53;5051645;28;20280;-53
2021/11/17 11:01:04;;;;;;;;;;;;;;;16.99;100.00;101920.03;5052591;28;19959;-52
2021/11/17 11:03:33;;;;;;;;;;;;;;;16.88;100.00;101928.78;5052843;28;19917;-53
2021/11/17 11:06:01;;;;;;;;;;;;;;;17.54;100.00;101918.78;5052845;28;19928;-50
2021/11/17 11:08:29;;;;;;;;;;;;;;;17.00;100.00;101918.97;5084868;28;19923;-53
2021/11/17 11:10:56;;;;;;;;;;;;;;;17.05;100.00;101929.97;5071974;28;19912;-50
2021/11/17 11:13:23;;;;;;;;;;;;;;;17.51;100.00;101935.44;5055213;28;19964;-53
2021/11/17 11:15:54;;;;;;;;;;;;;;;17.51;100.00;101931.91;5055541;28;20007;-50
2021/11/17 11:18:19;;;;;;;;;;;;;;;17.88;100.00;101924.81;5072134;28;19917;-53
2021/11/17 11:20:48;;;;;;;;;;;;;;;18.27;100.00;101921.25;5056663;28;19916;-54
2021/11/17 11:23:23;;;;;;;;;;;;;;;19.02;100.00;101933.06;5056265;28;20353;-51
2021/11/17 11:25:51;;;;;;;;;;;;;;;20.17;100.00;101927.81;5089141;28;19956;-53
2021/11/17 11:28:19;;;;;;;;;;;;;;;19.69;100.00;101926.00;5056508;28;20372;-58
2021/11/17 11:30:45;;;;;;;;;;;;;;;19.66;100.00;101931.88;5056455;28;19939;-52
2021/11/17 11:33:18;;;;;;;;;;;;;;;19.12;100.00;101935.25;5056606;28;20357;-53
2021/11/17 11:36:04;;;;;;;;;;;;;;;19.04;100.00;101936.41;5056232;28;19917;-52
2021/11/17 11:38:34;;;;;;;;;;;;;;;19.92;100.00;101936.13;5056380;28;19923;-52
2021/11/17 11:40:59;;;;;;;;;;;;;;;22.10;100.00;101941.59;5055689;28;19923;-50
2021/11/17 11:43:25;;;;;;;;;;;;;;;22.10;100.00;101932.63;5056274;28;19917;-54
2021/11/17 11:45:53;;;;;;;;;;;;;;;22.63;100.00;101938.66;5056009;28;19916;-52
2021/11/17 11:48:24;;;;;;;;;;;;;;;21.88;100.00;101933.34;5089196;28;19917;-50
2021/11/17 11:50:56;;;;;;;;;;;;;;;24.03;100.00;101929.38;5088575;28;20011;-55
2021/11/17 11:53:27;;;;;;;;;;;;;;;24.88;88.69;101939.53;5056430;28;19952;-52
2021/11/17 11:55:58;;;;;;;;;;;;;;;25.72;80.06;101943.41;5054944;28;20272;-51
2021/11/17 11:58:26;;;;;;;;;;;;;;;25.20;77.89;101943.25;5056521;28;19940;-52
2021/11/17 12:01:00;;;;;;;;;;;;;;;25.81;81.66;101949.16;5056283;28;19995;-52
2021/11/17 12:03:26;;;;;;;;;;;;;;;27.07;69.17;101957.81;5056195;28;19916;-53
2021/11/17 12:06:00;;;;;;;;;;;;;;;25.05;77.94;101946.75;5088199;28;20383;-49
2021/11/17 12:08:28;;;;;;;;;;;;;;;25.17;82.11;101952.00;5056117;28;19916;-53
2021/11/17 12:11:07;;;;;;;;;;;;;;;24.68;87.06;101947.59;5054957;28;20284;-53
2021/11/17 12:13:41;;;;;;;;;;;;;;;24.57;96.09;101949.44;5054738;28;19920;-54
2021/11/17 12:16:12;;;;;;;;;;;;;;;24.77;90.33;101952.34;5055555;28;19921;-54
2021/11/17 12:19:04;;;;;;;;;;;;;;;24.78;84.53;101947.69;5071063;28;19917;-54
2021/11/17 12:21:38;;;;;;;;;;;;;;;24.92;82.51;101948.06;5051949;28;19924;-52
2021/11/17 12:24:06;;;;;;;;;;;;;;;23.19;99.92;101940.47;5055151;28;20011;-51
2021/11/17 12:26:34;;;;;;;;;;;;;;;22.66;100.00;101935.44;5055748;28;20080;-52
2021/11/17 12:29:00;;;;;;;;;;;;;;;24.09;91.46;101941.16;5055415;28;19916;-55
2021/11/17 12:31:28;;;;;;;;;;;;;;;22.90;100.00;101946.13;5055911;28;20007;-54
2021/11/17 12:33:57;;;;;;;;;;;;;;;23.05;84.98;101948.22;5055632;28;19984;-54
2021/11/17 12:36:26;;;;;;;;;;;;;;;23.85;100.00;101949.66;5055402;28;19970;-54
2021/11/17 12:38:52;;;;;;;;;;;;;;;22.62;75.14;101954.16;5055005;28;20034;-52
2021/11/17 12:41:18;;;;;;;;;;;;;;;22.02;84.64;101955.63;5055312;28;19939;-55
2021/11/17 12:43:45;;;;;;;;;;;;;;;21.82;88.47;101965.09;5087620;28;20373;-54
2021/11/17 12:46:20;;;;;;;;;;;;;;;21.95;100.00;101957.69;5054860;28;20460;-53
2021/11/17 12:48:49;;;;;;;;;;;;;;;21.09;97.35;101961.97;5055202;28;20261;-50
2021/11/17 12:51:20;;;;;;;;;;;;;;;20.73;94.11;101962.78;5055742;28;19924;-52
2021/11/17 12:53:49;;;;;;;;;;;;;;;20.99;98.01;101958.00;5070338;28;19995;-54
2021/11/17 12:56:23;;;;;;;;;;;;;;;21.32;89.58;101956.47;5055073;28;19919;-54
2021/11/17 12:59:09;;;;;;;;;;;;;;;21.33;96.70;101960.84;5055061;28;20364;-54
2021/11/17 13:02:10;;;;;;;;;;;;;;;23.44;69.21;101969.16;5054904;28;19912;-55
2021/11/17 13:04:37;;;;;;;;;;;;;;;24.61;58.95;101969.69;5032314;28;19917;-52
2021/11/17 13:07:05;;;;;;;;;;;;;;;23.41;60.38;101970.53;5050507;28;19999;-51
2021/11/17 13:09:50;;;;;;;;;;;;;;;24.15;58.59;101973.72;5054590;28;19924;-52
2021/11/17 13:12:18;;;;;;;;;;;;;;;24.97;57.48;101969.13;5053594;28;19917;-52
2021/11/17 13:14:43;;;;;;;;;;;;;;;24.20;51.80;101968.31;5054683;28;19916;-50
2021/11/17 13:17:14;;;;;;;;;;;;;;;24.02;57.63;101972.25;5087060;28;19912;-51
2021/11/17 13:19:41;;;;;;;;;;;;;;;21.96;61.26;101962.88;5054412;28;19917;-53
2021/11/17 13:22:29;;;;;;;;;;;;;;;21.56;71.33;101964.56;5087077;28;19921;-51
2021/11/17 13:25:14;;;;;;;;;;;;;;;20.83;80.79;101978.53;5054622;28;19917;-53
2021/11/17 13:28:06;;;;;;;;;;;;;;;20.65;76.49;101965.88;5053937;28;19982;-53
2021/11/17 13:30:35;;;;;;;;;;;;;;;21.01;79.02;101969.44;5053237;28;20335;-51
2021/11/17 13:33:19;;;;;;;;;;;;;;;20.68;79.83;101979.00;5069994;28;19916;-55
2021/11/17 13:35:44;;;;;;;;;;;;;;;19.98;83.16;101984.06;5054489;28;19916;-52
2021/11/17 13:38:16;;;;;;;;;;;;;;;20.08;88.34;101991.66;5053404;28;19922;-53
2021/11/17 13:40:43;;;;;;;;;;;;;;;20.56;88.37;101989.84;5054069;28;19925;-50
2021/11/17 13:43:09;;;;;;;;;;;;;;;20.00;100.00;101991.97;5054108;28;20014;-52
2021/11/17 13:45:35;;;;;;;;;;;;;;;19.83;100.00;102000.72;5054034;28;19917;-51
2021/11/17 13:48:00;;;;;;;;;;;;;;;19.99;100.00;101996.59;5053588;28;19923;-51
2021/11/17 13:50:30;;;;;;;;;;;;;;;19.27;100.00;102006.22;5053456;28;20381;-53
2021/11/17 13:52:57;;;;;;;;;;;;;;;19.06;100.00;102002.88;5052394;28;19963;-50
2021/11/17 13:55:25;;;;;;;;;;;;;;;19.08;100.00;101991.81;5054187;28;19924;-52
2021/11/17 13:57:51;;;;;;;;;;;;;;;19.60;100.00;102007.69;5053400;28;20011;-51
2021/11/17 14:00:18;;;;;;;;;;;;;;;18.93;100.00;102000.28;5053636;28;19970;-52
2021/11/17 14:02:45;;;;;;;;;;;;;;;19.57;100.00;102005.44;5053325;28;20002;-51
2021/11/17 14:05:11;;;;;;;;;;;;;;;19.20;100.00;102000.84;5053250;28;19916;-50
2021/11/17 14:07:37;;;;;;;;;;;;;;;19.61;100.00;101993.09;5053502;28;19978;-53
2021/11/17 14:10:07;;;;;;;;;;;;;;;19.47;100.00;102007.88;5052307;28;19959;-52
2021/11/17 14:12:32;;;;;;;;;;;;;;;19.82;100.00;102011.81;5052096;28;19952;-52
2021/11/17 14:14:58;;;;;;;;;;;;;;;19.92;100.00;102015.69;5052732;28;19952;-49
2021/11/17 14:17:24;;;;;;;;;;;;;;;20.39;96.46;102016.03;5053993;28;19919;-50
2021/11/17 14:19:50;;;;;;;;;;;;;;;19.47;99.25;102019.53;5053234;28;19920;-51
2021/11/17 14:22:15;;;;;;;;;;;;;;;19.91;90.36;102024.03;5086328;28;20258;-54
2021/11/17 14:24:41;;;;;;;;;;;;;;;20.27;97.18;102024.16;5053074;28;20302;-49
2021/11/17 14:27:08;;;;;;;;;;;;;;;20.37;98.64;102035.31;5051814;28;19924;-54
2021/11/17 14:29:51;;;;;;;;;;;;;;;20.04;94.61;102044.75;5052962;28;20011;-55
2021/11/17 14:32:18;;;;;;;;;;;;;;;19.87;93.68;102056.22;5052016;28;19917;-53
2021/11/17 14:34:44;;;;;;;;;;;;;;;19.57;98.36;102054.28;5052754;28;19924;-53
2021/11/17 14:37:10;;;;;;;;;;;;;;;19.59;98.36;102057.59;5052090;28;19920;-55
2021/11/17 14:39:37;;;;;;;;;;;;;;;19.27;94.81;102057.75;5053301;28;19939;-52
2021/11/17 14:42:03;;;;;;;;;;;;;;;19.48;98.77;102061.06;5051558;28;19990;-54
2021/11/17 14:44:28;;;;;;;;;;;;;;;18.91;98.67;102046.56;5051428;28;19917;-54
2021/11/17 14:46:54;;;;;;;;;;;;;;;19.34;96.30;102053.06;5053551;28;19916;-53
2021/11/17 14:49:19;;;;;;;;;;;;;;;20.27;86.51;102045.91;5052735;28;19921;-57
2021/11/17 14:51:45;;;;;;;;;;;;;;;19.85;86.86;102055.63;5053200;28;20316;-56
2021/11/17 14:54:11;;;;;;;;;;;;;;;19.67;90.74;102058.38;5053324;28;20273;-54
2021/11/17 14:56:37;;;;;;;;;;;;;;;19.35;94.00;102053.91;5053064;28;19921;-55
2021/11/17 14:59:02;;;;;;;;;;;;;;;19.32;89.72;102057.06;5052499;28;19921;-55
2021/11/17 15:01:31;;;;;;;;;;;;;;;19.70;87.15;102060.63;5084922;28;19924;-56
2021/11/17 15:03:57;;;;;;;;;;;;;;;19.16;86.55;102053.88;5053168;28;19913;-55
2021/11/17 15:06:23;;;;;;;;;;;;;;;19.46;88.43;102047.72;5052620;28;20010;-55
2021/11/17 15:08:49;;;;;;;;;;;;;;;19.14;89.81;102039.72;5052318;28;19916;-53
2021/11/17 15:11:15;;;;;;;;;;;;;;;19.02;90.37;102042.34;5051959;28;20379;-49